Time;durP1;ratioP1;P1;durP2;ratioP2;P2;SDS_P1;SDS_P2;PMS_P1;PMS_P2;Temp;Humidity;BMP_temperature;BMP_pressure;BME280_temperature;BME280_humidity;BME280_pressure;Samples;Min_cycle;Max_cycle;Signal;HPM_P1;HPM_P2
2022/12/26 00:01:01;;;;;;;2.70;2.50;;;12.90;44.80;;;;;;10481127;28;20315;-69
2022/12/26 00:06:12;;;;;;;3.83;2.37;;;12.90;44.30;;;;;;10474708;28;20236;-69
2022/12/26 00:11:16;;;;;;;3.50;2.90;;;12.80;43.80;;;;;;10482310;28;20279;-69
2022/12/26 00:16:20;;;;;;;2.80;2.60;;;12.70;44.20;;;;;;10479883;28;20712;-69
2022/12/26 00:21:27;;;;;;;3.27;2.70;;;12.60;43.90;;;;;;10483454;28;20846;-69
2022/12/26 00:26:33;;;;;;;2.80;2.60;;;12.60;43.70;;;;;;10481595;28;20228;-69
2022/12/26 00:31:36;;;;;;;2.90;2.70;;;12.50;43.60;;;;;;10481000;28;20228;-69
2022/12/26 00:36:41;;;;;;;3.57;3.00;;;12.30;43.80;;;;;;10475108;28;20228;-69
2022/12/26 00:41:45;;;;;;;2.80;2.60;;;12.20;43.80;;;;;;10477363;28;20220;-69
2022/12/26 00:46:48;;;;;;;2.77;2.57;;;12.20;43.90;;;;;;10480157;28;20228;-69
2022/12/26 00:51:52;;;;;;;2.60;2.40;;;12.20;44.00;;;;;;10481196;28;20823;-69
2022/12/26 00:56:55;;;;;;;2.70;2.20;;;12.10;43.90;;;;;;10479103;28;20236;-69
2022/12/26 01:01:58;;;;;;;2.67;2.47;;;12.00;43.80;;;;;;10481865;28;20264;-69
2022/12/26 01:07:03;;;;;;;3.00;2.77;;;12.00;43.60;;;;;;10477780;28;20237;-70
2022/12/26 01:12:06;;;;;;;3.13;2.93;;;11.90;43.40;;;;;;10479362;28;20232;-69
2022/12/26 01:17:09;;;;;;;2.60;2.40;;;11.90;43.60;;;;;;10478108;28;20822;-69
2022/12/26 01:22:14;;;;;;;2.93;2.73;;;11.90;43.70;;;;;;10478417;28;20228;-69
2022/12/26 01:27:17;;;;;;;2.70;2.50;;;11.80;43.60;;;;;;10480271;28;20235;-69
2022/12/26 01:32:20;;;;;;;2.83;2.63;;;11.70;43.70;;;;;;10476325;28;20607;-69
2022/12/26 01:37:25;;;;;;;3.10;2.80;;;11.70;43.70;;;;;;10480091;28;20232;-69
2022/12/26 01:42:37;;;;;;;2.67;2.47;;;11.60;43.40;;;;;;10478921;28;21068;-69
2022/12/26 01:47:46;;;;;;;7.83;2.50;;;11.60;43.30;;;;;;10475475;28;20221;-69
2022/12/26 01:52:51;;;;;;;2.93;2.73;;;11.50;43.30;;;;;;10475736;28;20723;-69
2022/12/26 01:57:59;;;;;;;3.30;2.43;;;11.50;44.30;;;;;;10477122;28;20228;-69
2022/12/26 02:08:28;;;;;;;2.60;2.40;;;11.40;43.70;;;;;;10475593;28;20319;-69
2022/12/26 02:13:34;;;;;;;2.70;2.50;;;11.30;43.50;;;;;;10477302;28;20236;-69
2022/12/26 02:18:37;;;;;;;2.93;2.30;;;11.30;43.70;;;;;;10476645;28;20250;-69
2022/12/26 02:24:27;;;;;;;2.53;2.33;;;11.20;43.60;;;;;;10476566;28;20216;-69
2022/12/26 02:30:03;;;;;;;2.87;2.67;;;11.10;43.40;;;;;;10439763;28;20638;-69
2022/12/26 02:35:18;;;;;;;3.17;2.70;;;11.00;43.50;;;;;;10475785;28;20239;-69
2022/12/26 02:40:38;;;;;;;2.73;2.50;;;11.00;43.70;;;;;;10475029;28;20228;-69
2022/12/26 03:13:11;;;;;;;3.20;2.87;;;10.60;43.30;;;;;;10479027;28;20263;-73
2022/12/26 03:18:15;;;;;;;2.97;2.77;;;10.60;43.60;;;;;;10473648;28;20228;-69
2022/12/26 03:23:21;;;;;;;6.97;5.83;;;10.50;43.60;;;;;;10475526;28;20216;-69
2022/12/26 03:28:25;;;;;;;7.57;6.03;;;10.50;43.70;;;;;;10471915;28;20220;-69
2022/12/26 03:38:56;;;;;;;5.27;4.67;;;10.40;43.80;;;;;;10472211;28;20738;-69
2022/12/26 04:44:02;;;;;;;3.10;2.90;;;10.00;44.50;;;;;;10477810;28;20224;-69
2022/12/26 04:54:28;;;;;;;3.10;2.87;;;10.00;44.50;;;;;;10462861;28;20224;-68
2022/12/26 04:59:32;;;;;;;4.57;3.10;;;10.00;44.50;;;;;;10478127;28;20224;-69
2022/12/26 05:09:56;;;;;;;9.30;4.43;;;9.90;45.40;;;;;;10477361;28;20228;-68
2022/12/26 05:15:01;;;;;;;9.23;6.10;;;9.90;45.70;;;;;;10478716;28;20232;-68
2022/12/26 05:30:51;;;;;;;3.80;3.50;;;9.90;46.10;;;;;;10479421;28;20293;-70
2022/12/26 05:35:54;;;;;;;3.97;3.27;;;9.90;46.10;;;;;;10477773;28;20260;-71
2022/12/26 05:40:57;;;;;;;4.07;3.40;;;9.90;45.90;;;;;;10477208;28;20589;-68
2022/12/26 05:46:02;;;;;;;3.93;3.33;;;9.90;45.90;;;;;;10479680;28;20247;-68
2022/12/26 05:51:05;;;;;;;3.37;3.10;;;9.80;46.20;;;;;;10474523;28;20254;-68
2022/12/26 05:56:12;;;;;;;4.63;3.10;;;9.90;46.20;;;;;;10476687;28;20242;-68
2022/12/26 06:01:19;;;;;;;3.97;3.03;;;9.90;46.50;;;;;;10475116;28;20228;-68
2022/12/26 06:06:24;;;;;;;4.30;3.40;;;9.90;46.50;;;;;;10475027;28;20255;-68
2022/12/26 06:11:27;;;;;;;3.37;3.07;;;9.90;46.30;;;;;;10474716;28;20909;-68
2022/12/26 06:16:31;;;;;;;4.30;3.63;;;9.90;46.30;;;;;;10477687;28;20232;-68
2022/12/26 06:21:35;;;;;;;6.53;5.63;;;9.90;46.60;;;;;;10476806;28;20220;-68
2022/12/26 06:26:38;;;;;;;7.63;6.20;;;9.90;46.30;;;;;;10473325;28;20228;-68
2022/12/26 06:31:42;;;;;;;6.53;5.57;;;9.90;46.20;;;;;;10473981;28;20232;-68
2022/12/26 06:36:45;;;;;;;6.90;5.13;;;10.00;45.40;;;;;;10473063;28;20232;-68
2022/12/26 06:41:48;;;;;;;4.60;3.90;;;10.00;45.30;;;;;;10473952;28;20224;-68
2022/12/26 06:46:53;;;;;;;3.50;3.20;;;10.00;45.40;;;;;;10476248;28;20240;-68
2022/12/26 06:51:56;;;;;;;3.00;2.70;;;10.10;45.50;;;;;;10470323;28;20233;-68
2022/12/26 06:56:59;;;;;;;3.83;3.00;;;10.10;45.30;;;;;;10473691;28;20254;-68
2022/12/26 07:02:04;;;;;;;3.57;2.67;;;10.10;45.30;;;;;;10468419;28;20220;-69
2022/12/26 07:07:07;;;;;;;3.00;2.80;;;10.10;45.40;;;;;;10475760;28;20335;-69
2022/12/26 07:12:10;;;;;;;3.50;3.20;;;10.10;45.30;;;;;;10473832;28;20236;-68
2022/12/26 07:17:15;;;;;;;5.70;3.70;;;10.10;45.20;;;;;;10472006;28;20273;-68
2022/12/26 07:22:18;;;;;;;3.23;2.90;;;10.10;45.30;;;;;;10473489;28;20217;-68
2022/12/26 07:27:21;;;;;;;3.27;3.03;;;10.10;45.20;;;;;;10476012;28;20662;-68
2022/12/26 07:32:26;;;;;;;4.90;3.20;;;10.10;45.00;;;;;;10472217;28;20236;-68
2022/12/26 07:37:29;;;;;;;3.63;3.17;;;10.10;45.30;;;;;;10474442;28;20247;-68
2022/12/26 07:42:32;;;;;;;3.60;3.30;;;10.10;45.70;;;;;;10473806;28;20230;-68
2022/12/26 07:47:37;;;;;;;5.00;4.50;;;10.10;46.00;;;;;;10471234;28;20224;-69
2022/12/26 07:52:40;;;;;;;6.10;4.70;;;10.20;46.80;;;;;;10475769;28;20293;-68
2022/12/26 07:57:43;;;;;;;5.53;5.00;;;10.30;46.90;;;;;;10477703;28;20595;-68
2022/12/26 08:02:53;;;;;;;9.73;7.80;;;10.40;46.90;;;;;;10479048;28;20234;-68
2022/12/26 08:07:56;;;;;;;9.27;7.40;;;10.50;47.00;;;;;;10483727;28;20852;-71
2022/12/26 08:12:59;;;;;;;5.40;4.63;;;10.60;46.80;;;;;;10484637;28;20731;-71
2022/12/26 08:18:04;;;;;;;4.90;4.50;;;10.70;46.80;;;;;;10476142;28;20360;-71
2022/12/26 08:23:07;;;;;;;4.77;4.37;;;10.70;47.10;;;;;;10482249;28;20231;-70
2022/12/26 08:28:10;;;;;;;4.60;4.20;;;10.80;46.90;;;;;;10473566;28;20716;-68
2022/12/26 08:33:15;;;;;;;4.37;3.97;;;10.90;47.00;;;;;;10478558;28;20232;-68
2022/12/26 08:38:18;;;;;;;4.50;4.10;;;10.90;47.30;;;;;;10483015;28;20307;-68
2022/12/26 08:43:21;;;;;;;4.57;4.17;;;11.00;47.00;;;;;;10479698;28;20229;-68
2022/12/26 08:48:46;;;;;;;4.70;3.40;;;11.00;47.20;;;;;;10479713;28;20305;-68
2022/12/26 08:53:50;;;;;;;4.30;3.90;;;11.10;48.10;;;;;;10478332;28;20700;-68
2022/12/26 08:58:54;;;;;;;3.60;3.30;;;11.20;48.40;;;;;;10477888;28;20600;-68
2022/12/26 09:03:59;;;;;;;3.47;3.17;;;11.40;48.60;;;;;;10476264;28;20294;-68
2022/12/26 09:09:03;;;;;;;3.30;3.00;;;11.60;49.10;;;;;;10476312;28;20243;-71
2022/12/26 09:14:07;;;;;;;3.60;3.30;;;11.80;48.80;;;;;;10481625;28;20244;-71
2022/12/26 09:19:15;;;;;;;4.83;3.13;;;12.10;48.90;;;;;;10476641;28;20747;-70
2022/12/26 09:24:18;;;;;;;3.20;2.90;;;12.30;48.80;;;;;;10476419;28;20221;-70
2022/12/26 09:29:21;;;;;;;3.13;2.93;;;12.60;48.70;;;;;;10475200;28;20634;-70
2022/12/26 09:34:26;;;;;;;4.00;3.00;;;12.80;48.30;;;;;;10477776;28;20224;-70
2022/12/26 09:39:29;;;;;;;4.03;3.23;;;13.00;48.20;;;;;;10478388;28;20228;-70
2022/12/26 09:44:43;;;;;;;2.70;2.50;;;13.20;48.10;;;;;;10475940;28;20231;-70
2022/12/26 09:49:54;;;;;;;2.77;2.57;;;13.40;47.50;;;;;;10477048;28;20231;-70
2022/12/26 09:55:01;;;;;;;2.87;2.67;;;13.50;47.30;;;;;;10476162;28;20237;-77
2022/12/26 10:00:06;;;;;;;3.60;3.30;;;13.60;47.30;;;;;;10467165;28;20236;-76
2022/12/26 10:05:14;;;;;;;3.40;3.10;;;13.70;47.30;;;;;;10472480;28;20810;-77
2022/12/26 10:10:23;;;;;;;3.27;2.97;;;13.80;46.90;;;;;;10461326;28;20761;-77
2022/12/26 10:15:38;;;;;;;3.10;2.80;;;13.90;47.00;;;;;;10468105;28;20236;-77
2022/12/26 10:20:54;;;;;;;2.80;2.60;;;14.00;46.60;;;;;;10464244;28;20243;-77
2022/12/26 10:26:03;;;;;;;2.70;2.50;;;14.10;46.40;;;;;;10466638;28;20258;-77
2022/12/26 10:31:11;;;;;;;2.60;2.40;;;14.20;46.40;;;;;;10462220;28;20229;-77
2022/12/26 10:36:23;;;;;;;3.60;2.60;;;14.30;46.30;;;;;;10470205;28;20574;-77
2022/12/26 10:41:31;;;;;;;3.13;2.80;;;14.30;45.90;;;;;;10465593;28;20232;-77
2022/12/26 10:46:51;;;;;;;5.70;3.30;;;14.40;46.00;;;;;;10460070;28;20224;-77
2022/12/26 10:51:59;;;;;;;4.43;3.90;;;14.40;45.80;;;;;;10477237;28;20939;-77
2022/12/26 10:57:02;;;;;;;4.00;3.40;;;14.50;46.00;;;;;;10464057;28;20265;-74
2022/12/26 11:02:23;;;;;;;3.50;3.20;;;14.50;46.10;;;;;;10459996;28;20728;-77
2022/12/26 11:07:30;;;;;;;3.50;3.20;;;14.50;45.30;;;;;;10461452;28;20256;-77
2022/12/26 11:12:40;;;;;;;3.80;3.50;;;14.60;45.50;;;;;;10471031;28;20239;-68
2022/12/26 11:17:46;;;;;;;4.20;3.80;;;14.60;45.20;;;;;;10473486;28;20277;-68
2022/12/26 11:22:51;;;;;;;4.47;4.07;;;14.50;45.10;;;;;;10471455;28;20808;-68
2022/12/26 11:27:56;;;;;;;4.67;4.17;;;14.50;45.20;;;;;;10483287;28;20228;-68
2022/12/26 11:33:06;;;;;;;4.23;3.93;;;14.40;45.00;;;;;;10481967;28;20236;-68
2022/12/26 11:38:35;;;;;;;5.10;4.27;;;14.30;45.00;;;;;;10478679;28;20220;-68
2022/12/26 11:43:47;;;;;;;5.27;4.50;;;14.20;45.10;;;;;;10480593;28;20223;-68
2022/12/26 11:48:51;;;;;;;5.07;4.67;;;14.20;45.50;;;;;;10484115;28;20247;-68
2022/12/26 11:54:17;;;;;;;7.13;6.33;;;14.10;45.80;;;;;;10479413;28;20605;-68
2022/12/26 11:59:23;;;;;;;6.57;5.30;;;14.10;46.20;;;;;;10476520;28;20225;-77
2022/12/26 12:04:26;;;;;;;7.00;5.70;;;14.00;46.30;;;;;;10463084;28;20220;-77
2022/12/26 12:09:37;;;;;;;5.43;4.63;;;14.00;46.50;;;;;;10479570;28;20238;-77
2022/12/26 12:14:55;;;;;;;4.97;3.90;;;14.00;46.70;;;;;;10466946;28;20245;-77
2022/12/26 12:20:15;;;;;;;5.07;4.67;;;14.00;47.00;;;;;;10468426;28;20224;-77
2022/12/26 12:25:38;;;;;;;5.03;4.53;;;13.90;47.00;;;;;;10475424;28;20220;-70
2022/12/26 12:30:47;;;;;;;4.87;4.47;;;13.90;46.90;;;;;;10477271;28;20224;-70
2022/12/26 12:36:01;;;;;;;4.63;4.23;;;13.80;46.90;;;;;;10479162;28;20639;-70
2022/12/26 12:41:26;;;;;;;4.33;3.90;;;13.80;47.40;;;;;;10475182;28;20690;-70
2022/12/26 12:46:39;;;;;;;3.83;3.30;;;13.70;47.60;;;;;;10480014;28;20232;-72
2022/12/26 12:51:51;;;;;;;3.80;3.50;;;13.70;47.40;;;;;;10478697;28;20223;-72
2022/12/26 12:57:01;;;;;;;3.80;3.50;;;13.60;47.40;;;;;;10482053;28;20244;-72
2022/12/26 13:02:20;;;;;;;4.00;3.67;;;13.60;47.60;;;;;;10477708;28;20228;-72
2022/12/26 13:07:32;;;;;;;3.10;2.90;;;13.50;47.60;;;;;;10479386;28;20251;-72
2022/12/26 13:12:39;;;;;;;3.10;2.90;;;13.50;47.60;;;;;;10468727;28;20328;-77
2022/12/26 13:17:49;;;;;;;2.60;2.40;;;13.40;47.90;;;;;;10469792;28;20220;-77
2022/12/26 13:28:27;;;;;;;2.40;2.20;;;13.40;48.20;;;;;;10465034;28;20282;-77
2022/12/26 13:33:31;;;;;;;2.23;2.13;;;13.40;47.90;;;;;;10468135;28;20232;-77
2022/12/26 13:39:23;;;;;;;2.83;2.63;;;13.40;47.70;;;;;;10471036;28;20717;-77
2022/12/26 13:44:28;;;;;;;2.37;2.17;;;13.40;48.10;;;;;;10416074;28;20889;-77
2022/12/26 13:49:35;;;;;;;2.90;2.70;;;13.40;48.00;;;;;;10460560;28;20229;-76
2022/12/26 13:55:17;;;;;;;2.50;2.27;;;13.30;48.10;;;;;;10459802;28;20225;-77
2022/12/26 14:00:39;;;;;;;2.43;2.23;;;13.30;48.30;;;;;;10464482;28;20277;-77
2022/12/26 14:05:56;;;;;;;3.40;3.10;;;13.30;48.50;;;;;;10468379;28;20236;-77
2022/12/26 14:11:10;;;;;;;3.80;3.50;;;13.20;48.60;;;;;;10467423;28;20707;-77
2022/12/26 14:16:20;;;;;;;5.00;4.40;;;13.10;48.60;;;;;;10458011;28;20231;-77
2022/12/26 14:21:33;;;;;;;2.60;2.40;;;13.10;48.60;;;;;;10462220;28;20751;-76
2022/12/26 14:26:46;;;;;;;1.40;1.30;;;13.00;48.50;;;;;;10463335;28;20258;-77
2022/12/26 14:32:10;;;;;;;1.67;1.47;;;13.00;48.50;;;;;;10470357;28;20236;-70
2022/12/26 14:37:20;;;;;;;1.50;1.40;;;13.00;48.60;;;;;;10476493;28;20255;-70
2022/12/26 14:47:48;;;;;;;1.67;1.57;;;13.00;48.50;;;;;;10472304;28;20243;-70
2022/12/26 14:52:51;;;;;;;1.57;1.47;;;13.00;48.50;;;;;;10475894;28;20224;-69
2022/12/26 14:57:55;;;;;;;1.80;1.63;;;13.00;48.60;;;;;;10476558;28;20804;-70
2022/12/26 15:03:39;;;;;;;1.60;1.50;;;13.00;48.50;;;;;;10473663;28;20255;-69
2022/12/26 15:08:59;;;;;;;1.33;1.10;;;13.00;48.50;;;;;;10475628;28;20693;-70
2022/12/26 15:14:36;;;;;;;1.53;1.30;;;13.00;48.50;;;;;;10472931;28;20238;-70
2022/12/26 15:20:10;;;;;;;1.93;1.80;;;13.00;48.80;;;;;;10477139;28;20735;-70
2022/12/26 15:25:44;;;;;;;1.90;1.80;;;13.00;49.00;;;;;;10475680;28;20235;-70
2022/12/26 15:31:07;;;;;;;2.27;2.07;;;13.00;49.00;;;;;;10473836;28;20216;-71
2022/12/26 15:36:21;;;;;;;1.80;1.70;;;13.00;49.20;;;;;;10473692;28;20232;-70
2022/12/26 15:41:35;;;;;;;3.87;2.60;;;13.00;49.10;;;;;;10471010;28;20228;-68
2022/12/26 15:46:43;;;;;;;2.43;2.23;;;13.00;48.80;;;;;;10474943;28;20228;-68
2022/12/26 15:51:56;;;;;;;2.80;2.60;;;13.00;48.80;;;;;;10472672;28;20736;-67
2022/12/26 15:57:13;;;;;;;3.60;2.47;;;13.00;48.90;;;;;;10473425;28;20720;-70
2022/12/26 16:02:45;;;;;;;3.57;2.93;;;13.00;48.90;;;;;;10472609;28;20226;-70
2022/12/26 16:07:54;;;;;;;6.03;3.17;;;13.00;48.80;;;;;;10470229;28;20228;-68
2022/12/26 16:13:01;;;;;;;2.50;2.30;;;13.00;48.70;;;;;;10478970;28;20229;-70
2022/12/26 16:18:14;;;;;;;2.77;2.50;;;13.00;48.50;;;;;;10480134;28;20236;-70
2022/12/26 16:23:22;;;;;;;2.67;2.47;;;13.00;48.60;;;;;;10483612;28;20229;-70
2022/12/26 16:28:28;;;;;;;2.20;2.07;;;13.00;48.60;;;;;;10481893;28;20704;-70
2022/12/26 16:33:34;;;;;;;2.57;2.37;;;13.00;48.50;;;;;;10477755;28;20610;-71
2022/12/26 16:38:39;;;;;;;3.00;2.80;;;13.00;48.50;;;;;;10479241;28;20232;-77
2022/12/26 16:43:42;;;;;;;2.50;2.30;;;13.00;48.50;;;;;;10462742;28;20228;-77
2022/12/26 16:48:52;;;;;;;2.80;2.23;;;13.00;48.60;;;;;;10466211;28;20233;-77
2022/12/26 16:54:15;;;;;;;3.60;3.20;;;12.90;48.40;;;;;;10474233;28;20232;-77
2022/12/26 16:59:21;;;;;;;2.23;2.03;;;12.90;48.40;;;;;;10472685;28;20228;-70
2022/12/26 17:04:26;;;;;;;3.60;3.30;;;13.00;48.50;;;;;;10478466;28;20249;-70
2022/12/26 17:09:40;;;;;;;3.60;3.30;;;13.00;48.50;;;;;;10479124;28;20239;-70
2022/12/26 17:14:48;;;;;;;2.50;2.30;;;12.90;48.40;;;;;;10479493;28;20228;-70
2022/12/26 17:19:53;;;;;;;2.90;2.67;;;12.90;48.40;;;;;;10480057;28;20235;-70
2022/12/26 17:25:23;;;;;;;2.20;2.03;;;12.90;48.40;;;;;;10478745;28;20232;-70
2022/12/26 17:30:28;;;;;;;2.73;2.53;;;12.90;48.40;;;;;;10477476;28;20228;-68
2022/12/26 17:35:34;;;;;;;2.30;2.20;;;12.90;48.20;;;;;;10478418;28;20224;-68
2022/12/26 17:41:02;;;;;;;2.07;1.97;;;12.90;48.20;;;;;;10478226;28;20319;-68
2022/12/26 17:46:07;;;;;;;2.20;2.00;;;12.90;48.40;;;;;;10477962;28;20382;-68
2022/12/26 17:51:15;;;;;;;2.53;1.80;;;12.90;48.20;;;;;;10479695;28;20258;-68
2022/12/26 17:56:23;;;;;;;1.27;1.17;;;12.90;48.30;;;;;;10473248;28;20231;-68
2022/12/26 18:01:26;;;;;;;2.50;2.30;;;12.90;48.00;;;;;;10476842;28;20235;-68
2022/12/26 18:06:29;;;;;;;2.30;2.10;;;12.90;48.00;;;;;;10477572;28;20806;-68
2022/12/26 18:11:34;;;;;;;1.60;1.50;;;13.00;47.90;;;;;;10478976;28;20644;-68
2022/12/26 18:16:38;;;;;;;1.80;1.70;;;12.90;47.80;;;;;;10476829;28;20236;-68
2022/12/26 18:21:41;;;;;;;1.60;1.50;;;12.90;47.90;;;;;;10478120;28;20626;-68
2022/12/26 18:26:46;;;;;;;1.37;1.27;;;12.90;47.80;;;;;;10472399;28;20229;-68
2022/12/26 18:31:49;;;;;;;1.40;1.30;;;12.90;47.80;;;;;;10476583;28;20223;-70
2022/12/26 18:36:52;;;;;;;2.97;2.23;;;12.90;47.90;;;;;;10477173;28;20247;-70
2022/12/26 18:41:56;;;;;;;2.00;1.67;;;12.90;47.80;;;;;;10474641;28;20241;-71
2022/12/26 18:47:00;;;;;;;2.47;2.27;;;12.90;47.70;;;;;;10471068;28;20227;-72
2022/12/26 18:52:03;;;;;;;1.83;1.73;;;12.90;47.70;;;;;;10472829;28;20217;-71
2022/12/26 18:57:11;;;;;;;1.50;1.40;;;12.90;47.70;;;;;;10474961;28;20235;-71
2022/12/26 19:02:16;;;;;;;1.27;1.10;;;12.90;47.70;;;;;;10475690;28;20232;-71
2022/12/26 19:07:20;;;;;;;1.13;1.13;;;12.90;47.70;;;;;;10472697;28;20709;-76
2022/12/26 19:12:25;;;;;;;1.20;1.10;;;12.90;47.60;;;;;;10469297;28;20235;-77
2022/12/26 19:17:28;;;;;;;1.10;1.10;;;12.90;47.60;;;;;;10475445;28;20228;-72
2022/12/26 19:22:31;;;;;;;1.30;1.20;;;12.90;47.70;;;;;;10476295;28;20235;-73
2022/12/26 19:27:35;;;;;;;1.20;1.00;;;12.90;47.70;;;;;;10475489;28;20716;-72
2022/12/26 19:32:38;;;;;;;1.20;1.10;;;12.90;47.50;;;;;;10476022;28;20271;-72
2022/12/26 19:37:41;;;;;;;1.00;1.00;;;12.90;47.60;;;;;;10471066;28;20601;-72
2022/12/26 19:42:46;;;;;;;1.00;1.00;;;12.90;47.60;;;;;;10473580;28;20228;-72
2022/12/26 19:47:49;;;;;;;1.30;1.20;;;12.90;47.60;;;;;;10483084;28;20232;-72
2022/12/26 19:52:52;;;;;;;0.90;0.90;;;12.90;47.60;;;;;;10480879;28;20228;-72
2022/12/26 19:57:57;;;;;;;0.97;0.97;;;12.90;47.60;;;;;;10479341;28;20228;-72
2022/12/26 20:03:00;;;;;;;1.30;1.20;;;12.90;47.70;;;;;;10480259;28;20228;-68
2022/12/26 20:08:03;;;;;;;1.10;1.10;;;12.90;47.70;;;;;;10480968;28;20319;-69
2022/12/26 20:13:08;;;;;;;0.97;0.97;;;13.00;47.80;;;;;;10481078;28;20239;-68
2022/12/26 20:18:11;;;;;;;0.80;0.80;;;13.00;47.80;;;;;;10479741;28;20741;-69
2022/12/26 20:23:17;;;;;;;3.33;0.90;;;13.10;47.90;;;;;;10479548;28;20232;-70
2022/12/26 20:28:21;;;;;;;1.47;1.37;;;13.20;47.80;;;;;;10481207;28;20597;-70
2022/12/26 20:33:24;;;;;;;1.20;1.20;;;13.20;47.70;;;;;;10482321;28;20727;-71
2022/12/26 20:38:27;;;;;;;2.60;1.00;;;13.20;47.70;;;;;;10480418;28;20808;-70
2022/12/26 20:43:32;;;;;;;0.87;0.87;;;13.20;47.20;;;;;;10479302;28;20236;-70
2022/12/26 20:48:36;;;;;;;0.83;0.70;;;13.10;46.90;;;;;;10482639;28;20735;-70
2022/12/26 20:53:40;;;;;;;0.70;0.70;;;13.00;46.90;;;;;;10481673;28;20760;-70
2022/12/26 20:58:45;;;;;;;0.70;0.70;;;12.80;46.70;;;;;;10474690;28;20229;-70
2022/12/26 21:03:51;;;;;;;0.63;0.60;;;12.70;46.80;;;;;;10479494;28;20225;-70
2022/12/26 21:08:55;;;;;;;1.13;0.70;;;12.60;46.90;;;;;;10481308;28;20229;-70
2022/12/26 21:14:01;;;;;;;1.53;0.80;;;12.50;46.90;;;;;;10476347;28;20224;-70
2022/12/26 21:19:05;;;;;;;0.63;0.63;;;12.50;47.20;;;;;;10478221;28;20236;-71
2022/12/26 21:24:18;;;;;;;0.87;0.77;;;12.40;47.30;;;;;;10481215;28;20271;-70
2022/12/26 21:29:25;;;;;;;0.90;0.90;;;12.20;47.60;;;;;;10478801;28;21840;-70
2022/12/26 21:34:30;;;;;;;1.23;0.77;;;12.20;47.80;;;;;;10471299;28;20232;-70
2022/12/26 21:39:35;;;;;;;1.53;0.83;;;12.10;47.70;;;;;;10462196;28;20232;-77
2022/12/26 21:44:40;;;;;;;0.60;0.60;;;12.10;47.70;;;;;;10465832;28;20224;-77
2022/12/26 21:49:43;;;;;;;1.30;1.20;;;12.00;47.60;;;;;;10465673;28;20231;-77
2022/12/26 22:00:10;;;;;;;1.50;1.40;;;12.00;47.60;;;;;;10474264;28;20227;-72
2022/12/26 22:05:13;;;;;;;1.90;1.60;;;11.90;47.60;;;;;;10478039;28;20645;-72
2022/12/26 22:20:55;;;;;;;1.90;1.80;;;11.70;47.70;;;;;;10478570;28;20228;-69
2022/12/26 22:25:59;;;;;;;1.30;1.20;;;11.70;47.60;;;;;;10479128;28;21150;-69
2022/12/26 22:31:04;;;;;;;0.90;0.90;;;11.70;47.50;;;;;;10474521;28;20681;-68
2022/12/26 22:36:09;;;;;;;0.83;0.83;;;11.70;47.70;;;;;;10477412;28;20637;-71
2022/12/26 22:41:12;;;;;;;1.07;0.70;;;11.70;47.70;;;;;;10476104;28;20228;-71
2022/12/26 22:46:16;;;;;;;0.70;0.70;;;11.70;47.40;;;;;;10474239;28;20792;-71
2022/12/26 22:51:22;;;;;;;0.70;0.70;;;11.60;47.70;;;;;;10475523;28;20695;-71
2022/12/26 22:56:26;;;;;;;0.90;0.60;;;11.60;47.80;;;;;;10476573;28;20713;-71
2022/12/26 23:01:31;;;;;;;0.70;0.70;;;11.60;47.60;;;;;;10471689;28;20224;-71
2022/12/26 23:06:36;;;;;;;1.90;1.77;;;11.60;47.80;;;;;;10475514;28;20722;-71
2022/12/26 23:11:40;;;;;;;2.30;2.10;;;11.50;47.80;;;;;;10474168;28;20232;-71
2022/12/26 23:16:50;;;;;;;2.10;1.90;;;11.50;47.70;;;;;;10476059;28;20239;-71
2022/12/26 23:21:53;;;;;;;2.57;1.40;;;11.50;47.60;;;;;;10473227;28;20224;-69
2022/12/26 23:30:16;;;;;;;1.60;1.23;;;11.50;47.40;;;;;;10478400;28;20876;-69
2022/12/26 23:32:23;;;;;;;1.20;1.10;;;11.50;47.20;;;;;;10475379;28;20232;-69
2022/12/26 23:37:26;;;;;;;1.50;1.40;;;11.50;47.20;;;;;;10472283;28;20753;-69
2022/12/26 23:42:29;;;;;;;1.83;1.40;;;11.40;47.10;;;;;;10474627;28;20224;-76
2022/12/26 23:47:36;;;;;;;1.47;1.00;;;11.50;47.20;;;;;;10466627;28;20287;-76
2022/12/26 23:52:40;;;;;;;1.33;0.90;;;11.40;47.00;;;;;;10463454;28;20224;-76
2022/12/26 23:57:43;;;;;;;0.80;0.80;;;11.40;46.60;;;;;;10467193;28;20704;-76
